createdAt,value
2023-01-04T00:02:17.298Z,10.80
2023-01-04T00:05:02.938Z,10.90
2023-01-04T00:07:48.244Z,10.90
2023-01-04T00:10:33.840Z,10.90
2023-01-04T00:13:19.454Z,10.90
2023-01-04T00:16:08.648Z,10.90
2023-01-04T00:18:54.988Z,10.80
2023-01-04T00:21:40.232Z,10.80
2023-01-04T00:24:25.753Z,10.90
2023-01-04T00:27:11.367Z,11.00
2023-01-04T00:29:56.911Z,10.90
2023-01-04T00:32:42.326Z,10.90
2023-01-04T00:35:45.115Z,11.00
2023-01-04T00:38:33.716Z,11.00
2023-01-04T00:41:49.136Z,11.00
2023-01-04T00:44:24.302Z,11.00
2023-01-04T00:47:10.717Z,11.00
2023-01-04T00:49:58.600Z,11.00
2023-01-04T00:52:44.038Z,11.10
2023-01-04T00:55:30.954Z,11.20
2023-01-04T00:58:16.320Z,11.10
2023-01-04T01:01:06.654Z,11.20
2023-01-04T01:03:54.847Z,11.30
2023-01-04T01:06:40.653Z,11.30
2023-01-04T01:09:29.215Z,11.30
2023-01-04T01:12:14.404Z,11.40
2023-01-04T01:15:00.779Z,11.50
2023-01-04T01:17:46.309Z,11.50
2023-01-04T01:20:31.903Z,11.60
2023-01-04T01:23:17.573Z,11.60
2023-01-04T01:26:04.666Z,11.60
2023-01-04T01:28:51.124Z,11.60
2023-01-04T01:31:43.740Z,11.60
2023-01-04T01:34:34.584Z,11.60
2023-01-04T01:37:20.040Z,11.60
2023-01-04T01:40:06.024Z,11.70
2023-01-04T01:42:52.683Z,11.80
2023-01-04T01:45:39.613Z,11.80
2023-01-04T01:48:29.505Z,11.90
2023-01-04T01:51:16.738Z,11.80
2023-01-04T01:54:07.903Z,11.90
2023-01-04T01:56:59.862Z,11.80
2023-01-04T01:59:51.209Z,11.90
2023-01-04T02:02:36.905Z,11.90
2023-01-04T02:05:23.467Z,12.00
2023-01-04T02:08:10.511Z,12.10
2023-01-04T02:10:57.659Z,12.10
2023-01-04T02:14:02.772Z,12.10
2023-01-04T02:17:18.133Z,12.20
2023-01-04T02:20:24.839Z,12.20
2023-01-04T02:23:43.658Z,12.20
2023-01-04T02:26:49.905Z,12.20
2023-01-04T02:30:10.236Z,12.20
2023-01-04T02:32:55.693Z,12.20
2023-01-04T02:36:14.403Z,12.30
2023-01-04T02:39:10.968Z,12.40
2023-01-04T02:42:06.949Z,12.50
2023-01-04T02:45:01.198Z,12.40
2023-01-04T02:48:05.973Z,12.40
2023-01-04T02:50:54.316Z,12.40
2023-01-04T02:53:41.124Z,12.40
2023-01-04T02:56:40.028Z,12.50
2023-01-04T02:59:41.727Z,12.50
2023-01-04T03:03:10.500Z,12.60
2023-01-04T03:06:15.706Z,12.50
2023-01-04T03:09:15.147Z,12.50
2023-01-04T03:12:28.756Z,12.50
2023-01-04T03:15:22.036Z,12.50
2023-01-04T03:18:21.685Z,12.50
2023-01-04T03:21:09.914Z,12.50
2023-01-04T03:24:16.281Z,12.60
2023-01-04T03:27:28.892Z,12.60
2023-01-04T03:30:35.362Z,12.60
2023-01-04T03:33:40.941Z,12.60
2023-01-04T03:36:32.415Z,12.60
2023-01-04T03:39:57.423Z,12.60
2023-01-04T03:43:15.781Z,12.70
2023-01-04T03:46:49.958Z,12.70
2023-01-04T03:49:39.153Z,12.70
2023-01-04T03:52:29.033Z,12.70
2023-01-04T03:55:16.643Z,12.70
2023-01-04T03:58:02.204Z,12.70
2023-01-04T04:00:47.950Z,12.80
2023-01-04T04:03:51.815Z,12.80
2023-01-04T04:06:55.431Z,12.80
2023-01-04T04:09:43.758Z,12.90
2023-01-04T04:12:29.941Z,12.90
2023-01-04T04:15:15.789Z,12.90
2023-01-04T04:18:01.137Z,12.90
2023-01-04T04:20:49.280Z,13.00
2023-01-04T04:23:35.008Z,13.00
2023-01-04T04:26:20.346Z,13.00
2023-01-04T04:29:05.875Z,13.00
2023-01-04T04:31:51.950Z,13.00
2023-01-04T04:34:37.623Z,13.10
2023-01-04T04:37:23.145Z,13.00
2023-01-04T04:40:29.056Z,13.10
2023-01-04T04:43:17.626Z,13.10
2023-01-04T04:46:03.491Z,13.00
2023-01-04T04:48:48.805Z,13.00
2023-01-04T04:51:34.908Z,13.00
2023-01-04T04:54:21.863Z,12.90
2023-01-04T04:57:07.144Z,12.90
2023-01-04T04:59:52.664Z,13.00
2023-01-04T05:02:38.612Z,12.90
2023-01-04T05:05:24.177Z,12.90
2023-01-04T05:08:10.076Z,12.90
2023-01-04T05:10:55.404Z,12.80
2023-01-04T05:13:41.453Z,12.80
2023-01-04T05:16:29.805Z,12.80
2023-01-04T05:19:15.524Z,12.80
2023-01-04T05:22:00.966Z,12.80
2023-01-04T05:24:46.543Z,12.80
2023-01-04T05:27:32.000Z,12.70
2023-01-04T05:30:44.287Z,12.90
2023-01-04T05:33:31.749Z,12.80
2023-01-04T05:36:17.144Z,13.00
2023-01-04T05:39:02.599Z,13.00
2023-01-04T05:42:06.309Z,13.00
2023-01-04T05:44:52.894Z,13.00
2023-01-04T05:47:38.303Z,13.00
2023-01-04T05:50:24.931Z,13.00
2023-01-04T05:53:12.562Z,13.00
2023-01-04T05:56:07.625Z,13.00
2023-01-04T05:58:55.857Z,13.00
2023-01-04T06:01:41.140Z,13.00
2023-01-04T06:04:26.698Z,13.10
2023-01-04T06:07:12.290Z,13.10
2023-01-04T06:10:01.212Z,13.10
2023-01-04T06:12:47.695Z,13.00
2023-01-04T06:15:36.603Z,13.10
2023-01-04T06:18:25.204Z,13.10
2023-01-04T06:21:10.793Z,13.10
2023-01-04T06:23:56.277Z,13.20
2023-01-04T06:26:41.526Z,13.20
2023-01-04T06:29:27.059Z,13.20
2023-01-04T06:32:15.657Z,13.20
2023-01-04T06:35:01.339Z,13.20
2023-01-04T06:37:48.926Z,13.30
2023-01-04T06:40:34.614Z,13.20
2023-01-04T06:43:23.133Z,13.30
2023-01-04T06:46:08.596Z,13.20
2023-01-04T06:48:54.185Z,13.30
2023-01-04T06:51:42.437Z,13.20
2023-01-04T06:54:27.685Z,13.30
2023-01-04T06:57:13.385Z,13.20
2023-01-04T06:59:59.000Z,13.20
2023-01-04T07:03:13.728Z,13.30
2023-01-04T07:05:49.964Z,13.40
2023-01-04T07:08:35.935Z,13.30
2023-01-04T07:11:21.679Z,13.20
2023-01-04T07:14:06.906Z,13.20
2023-01-04T07:16:52.499Z,13.20
2023-01-04T07:19:37.933Z,13.20
2023-01-04T07:22:23.454Z,13.30
2023-01-04T07:25:09.490Z,13.30
2023-01-04T07:27:57.649Z,13.20
2023-01-04T07:30:42.980Z,13.20
2023-01-04T07:33:29.455Z,13.20
2023-01-04T07:36:15.121Z,13.30
2023-01-04T07:39:03.691Z,13.30
2023-01-04T07:41:50.470Z,13.20
2023-01-04T07:44:38.911Z,13.20
2023-01-04T07:47:24.627Z,13.20
2023-01-04T07:50:10.236Z,13.30
2023-01-04T07:52:55.756Z,13.20
2023-01-04T07:55:41.468Z,13.30
2023-01-04T07:58:31.210Z,13.30
2023-01-04T08:01:19.179Z,13.30
2023-01-04T08:04:06.696Z,13.30
2023-01-04T08:06:52.280Z,13.40
2023-01-04T08:09:37.633Z,13.30
2023-01-04T08:12:23.339Z,13.30
2023-01-04T08:15:08.995Z,13.40
2023-01-04T08:17:56.324Z,13.30
2023-01-04T08:20:45.147Z,13.40
2023-01-04T08:23:30.560Z,13.40
2023-01-04T08:26:16.987Z,13.40
2023-01-04T08:29:03.158Z,13.40
2023-01-04T08:31:48.538Z,13.40
2023-01-04T08:34:36.912Z,13.40
2023-01-04T08:37:22.601Z,13.40
2023-01-04T08:40:11.401Z,13.50
2023-01-04T08:42:56.735Z,13.60
2023-01-04T08:45:42.643Z,13.50
2023-01-04T08:48:28.076Z,13.60
2023-01-04T08:51:16.269Z,13.60
2023-01-04T08:54:01.486Z,13.70
2023-01-04T08:56:47.001Z,13.80
2023-01-04T08:59:32.656Z,13.70
2023-01-04T09:02:25.422Z,13.80
2023-01-04T09:05:10.806Z,13.80
2023-01-04T09:08:08.534Z,13.80
2023-01-04T09:10:53.773Z,13.80
2023-01-04T09:13:43.192Z,13.80
2023-01-04T09:16:28.626Z,13.90
2023-01-04T09:19:19.698Z,13.90
2023-01-04T09:22:07.175Z,13.90
2023-01-04T09:24:54.023Z,14.00
2023-01-04T09:27:39.955Z,14.00
2023-01-04T09:30:28.021Z,14.00
2023-01-04T09:33:13.957Z,14.00
2023-01-04T09:36:07.079Z,14.00
2023-01-04T09:38:57.190Z,14.00
2023-01-04T09:42:05.673Z,14.00
2023-01-04T09:45:22.995Z,14.00
2023-01-04T09:48:10.961Z,14.00
2023-01-04T09:51:00.882Z,14.00
2023-01-04T09:54:02.343Z,14.00
2023-01-04T09:56:52.920Z,14.00
2023-01-04T09:59:42.207Z,14.00
2023-01-04T10:02:42.794Z,14.00
2023-01-04T10:05:31.411Z,14.00
2023-01-04T10:08:19.859Z,14.00
2023-01-04T10:11:31.593Z,14.00
2023-01-04T10:14:20.046Z,14.00
2023-01-04T10:17:30.367Z,14.00
2023-01-04T10:21:31.568Z,14.00
2023-01-04T10:24:35.095Z,14.10
2023-01-04T10:28:01.165Z,14.10
2023-01-04T10:31:39.741Z,14.10
2023-01-04T10:34:31.928Z,14.10
2023-01-04T10:37:35.107Z,14.10
2023-01-04T10:40:20.830Z,14.10
2023-01-04T10:43:29.727Z,14.10
2023-01-04T10:46:25.012Z,14.10
2023-01-04T10:49:34.067Z,14.10
2023-01-04T10:52:32.018Z,14.10
2023-01-04T10:55:27.362Z,14.20
2023-01-04T10:58:24.145Z,14.20
2023-01-04T11:01:16.606Z,14.20
2023-01-04T11:04:21.278Z,14.30
2023-01-04T11:07:18.072Z,14.30
2023-01-04T11:10:09.154Z,14.30
2023-01-04T11:12:54.872Z,14.40
2023-01-04T11:15:42.657Z,14.40
2023-01-04T11:18:28.991Z,14.50
2023-01-04T11:21:16.008Z,14.50
2023-01-04T11:24:30.309Z,14.50
2023-01-04T11:27:25.072Z,14.60
2023-01-04T11:33:25.508Z,14.60
2023-01-04T11:36:33.088Z,14.60
2023-01-04T11:39:23.040Z,14.60
2023-01-04T11:42:21.508Z,14.60
2023-01-04T11:45:19.066Z,14.60
2023-01-04T11:48:15.423Z,14.60
2023-01-04T11:51:01.964Z,14.60
2023-01-04T11:54:16.022Z,14.50
2023-01-04T11:57:11.605Z,14.60
2023-01-04T12:00:14.159Z,14.60
2023-01-04T12:03:15.358Z,14.60
2023-01-04T12:06:00.626Z,14.70
2023-01-04T12:08:46.612Z,14.70
2023-01-04T12:11:37.117Z,14.80
2023-01-04T12:14:36.040Z,14.80
2023-01-04T12:17:48.811Z,14.90
2023-01-04T12:20:35.886Z,14.90
2023-01-04T12:23:21.506Z,14.90
2023-01-04T12:26:08.894Z,15.00
2023-01-04T12:29:29.154Z,14.90
2023-01-04T12:32:17.463Z,14.90
2023-01-04T12:35:03.725Z,14.90
2023-01-04T12:37:49.577Z,14.90
2023-01-04T12:40:47.966Z,14.80
2023-01-04T12:43:46.565Z,14.80
2023-01-04T12:46:52.971Z,14.80
2023-01-04T12:50:00.196Z,14.80
2023-01-04T12:53:28.261Z,14.80
2023-01-04T12:55:55.056Z,14.80
2023-01-04T12:59:15.272Z,14.80
2023-01-04T13:02:18.503Z,14.80
2023-01-04T13:08:21.961Z,14.80
2023-01-04T13:11:42.757Z,14.70
2023-01-04T13:15:05.811Z,14.70
2023-01-04T13:17:50.981Z,14.60
2023-01-04T13:20:38.467Z,14.60
2023-01-04T13:23:26.599Z,14.60
2023-01-04T13:26:43.162Z,14.60
2023-01-04T13:29:34.048Z,14.70
2023-01-04T13:32:33.434Z,14.70
2023-01-04T13:35:21.281Z,14.70
2023-01-04T13:38:14.169Z,14.80
2023-01-04T13:40:59.925Z,14.70
2023-01-04T13:44:07.275Z,14.80
2023-01-04T13:46:58.023Z,14.90
2023-01-04T13:49:43.537Z,15.10
2023-01-04T13:52:53.040Z,15.20
2023-01-04T13:55:41.218Z,15.50
2023-01-04T13:58:33.028Z,15.60
2023-01-04T14:01:50.704Z,15.50
2023-01-04T14:04:36.728Z,15.30
2023-01-04T14:07:23.707Z,15.20
2023-01-04T14:10:17.614Z,15.10
2023-01-04T14:13:17.402Z,15.00
2023-01-04T14:16:13.202Z,14.90
2023-01-04T14:18:58.353Z,14.80
2023-01-04T14:21:46.993Z,14.90
2023-01-04T14:27:42.659Z,14.90
2023-01-04T14:30:28.075Z,14.80
2023-01-04T14:33:36.111Z,14.80
2023-01-04T14:36:26.796Z,14.70
2023-01-04T14:39:24.052Z,14.70
2023-01-04T14:42:35.737Z,14.70
2023-01-04T14:45:21.476Z,14.70
2023-01-04T14:48:08.370Z,14.70
2023-01-04T14:50:53.926Z,14.70
2023-01-04T14:53:43.506Z,14.60
2023-01-04T14:56:28.871Z,14.60
2023-01-04T14:59:14.332Z,14.60
2023-01-04T15:02:02.762Z,14.50
2023-01-04T15:04:48.560Z,14.50
2023-01-04T15:07:42.348Z,14.50
2023-01-04T15:10:29.905Z,14.50
2023-01-04T15:13:19.448Z,14.50
2023-01-04T15:16:05.433Z,14.40
2023-01-04T15:18:56.345Z,14.40
2023-01-04T15:21:41.990Z,14.30
2023-01-04T15:24:27.367Z,14.30
2023-01-04T15:27:15.439Z,14.40
2023-01-04T15:30:00.697Z,14.30
2023-01-04T15:32:46.435Z,14.30
2023-01-04T15:35:32.111Z,14.20
2023-01-04T15:38:18.372Z,14.20
2023-01-04T15:41:32.439Z,14.20
2023-01-04T15:44:21.871Z,14.20
2023-01-04T15:47:07.831Z,14.20
2023-01-04T15:49:53.181Z,14.30
2023-01-04T15:52:38.713Z,14.20
2023-01-04T15:55:24.202Z,14.20
2023-01-04T15:58:09.739Z,14.10
2023-01-04T16:00:59.812Z,14.10
2023-01-04T16:03:53.899Z,14.10
2023-01-04T16:06:43.442Z,14.10
2023-01-04T16:09:28.952Z,14.00
2023-01-04T16:12:33.306Z,13.90
2023-01-04T16:15:20.930Z,13.90
2023-01-04T16:18:06.965Z,13.90
2023-01-04T16:20:52.308Z,14.00
2023-01-04T16:23:38.388Z,13.90
2023-01-04T16:26:24.153Z,13.90
2023-01-04T16:29:14.811Z,13.90
2023-01-04T16:32:02.729Z,13.90
2023-01-04T16:34:50.603Z,13.90
2023-01-04T16:37:36.599Z,13.90
2023-01-04T16:40:27.511Z,13.90
2023-01-04T16:43:12.969Z,13.90
2023-01-04T16:46:16.977Z,13.80
2023-01-04T16:49:04.596Z,13.80
2023-01-04T16:51:55.324Z,13.80
2023-01-04T16:54:43.401Z,13.80
2023-01-04T16:57:29.534Z,13.80
2023-01-04T17:00:17.588Z,13.70
2023-01-04T17:03:06.379Z,13.70
2023-01-04T17:05:51.599Z,13.70
2023-01-04T17:08:37.422Z,13.70
2023-01-04T17:14:34.611Z,13.80
2023-01-04T17:17:20.189Z,13.80
2023-01-04T17:20:06.610Z,13.80
2023-01-04T17:22:51.903Z,13.80
2023-01-04T17:25:37.324Z,13.80
2023-01-04T17:28:25.128Z,13.80
2023-01-04T17:31:33.739Z,13.80
2023-01-04T17:34:22.979Z,13.80
2023-01-04T17:37:08.709Z,13.80
2023-01-04T17:39:54.803Z,13.70
2023-01-04T17:42:44.977Z,13.70
2023-01-04T17:45:30.439Z,13.70
2023-01-04T17:48:22.057Z,13.70
2023-01-04T17:51:13.612Z,13.70
2023-01-04T17:54:02.161Z,13.70
2023-01-04T17:56:47.393Z,13.60
2023-01-04T17:59:34.902Z,13.60
2023-01-04T18:02:20.422Z,13.60
2023-01-04T18:05:06.130Z,13.60
2023-01-04T18:07:51.638Z,13.60
2023-01-04T18:10:57.217Z,13.70
2023-01-04T18:13:45.621Z,13.70
2023-01-04T18:16:31.578Z,13.70
2023-01-04T18:19:21.085Z,13.70
2023-01-04T18:22:06.935Z,13.70
2023-01-04T18:24:52.654Z,13.60
2023-01-04T18:27:38.066Z,13.60
2023-01-04T18:30:24.059Z,13.70
2023-01-04T18:33:09.343Z,13.70
2023-01-04T18:35:54.945Z,13.70
2023-01-04T18:38:40.696Z,13.60
2023-01-04T18:41:30.375Z,13.70
2023-01-04T18:44:32.604Z,13.70
2023-01-04T18:47:21.234Z,13.60
2023-01-04T18:50:06.835Z,13.60
2023-01-04T18:52:52.460Z,13.60
2023-01-04T18:55:39.356Z,13.60
2023-01-04T18:58:24.384Z,13.60
2023-01-04T19:01:12.008Z,13.60
2023-01-04T19:04:02.243Z,13.60
2023-01-04T19:06:47.923Z,13.60
2023-01-04T19:09:33.566Z,13.60
2023-01-04T19:12:19.757Z,13.60
2023-01-04T19:15:06.581Z,13.60
2023-01-04T19:17:54.475Z,13.60
2023-01-04T19:20:43.114Z,13.60
2023-01-04T19:23:28.685Z,13.70
2023-01-04T19:26:14.009Z,13.70
2023-01-04T19:28:59.380Z,13.70
2023-01-04T19:31:45.168Z,13.60
2023-01-04T19:34:33.506Z,13.70
2023-01-04T19:37:19.096Z,13.60
2023-01-04T19:40:08.063Z,13.70
2023-01-04T19:43:16.678Z,13.60
2023-01-04T19:46:02.215Z,13.60
2023-01-04T19:48:47.899Z,13.60
2023-01-04T19:51:41.893Z,13.60
2023-01-04T19:54:27.562Z,13.60
2023-01-04T19:57:13.066Z,13.50
2023-01-04T19:59:58.632Z,13.60
2023-01-04T20:02:44.047Z,13.60
2023-01-04T20:05:29.737Z,13.60
2023-01-04T20:08:15.478Z,13.50
2023-01-04T20:11:10.107Z,13.50
2023-01-04T20:13:57.900Z,13.60
2023-01-04T20:16:43.491Z,13.50
2023-01-04T20:19:28.896Z,13.60
2023-01-04T20:22:14.315Z,13.60
2023-01-04T20:25:01.194Z,13.60
2023-01-04T20:27:50.002Z,13.60
2023-01-04T20:30:36.027Z,13.60
2023-01-04T20:33:24.862Z,13.60
2023-01-04T20:36:19.077Z,13.60
2023-01-04T20:39:07.622Z,13.60
2023-01-04T20:42:11.883Z,13.50
2023-01-04T20:44:57.684Z,13.60
2023-01-04T20:47:43.349Z,13.60
2023-01-04T20:50:31.016Z,13.60
2023-01-04T20:53:20.981Z,13.60
2023-01-04T20:56:09.090Z,13.60
2023-01-04T20:58:55.707Z,13.50
2023-01-04T21:01:41.363Z,13.50
2023-01-04T21:04:27.625Z,13.50
2023-01-04T21:07:13.390Z,13.40
2023-01-04T21:09:58.980Z,13.40
2023-01-04T21:12:44.680Z,13.30
2023-01-04T21:15:29.942Z,13.30
2023-01-04T21:18:19.627Z,13.30
2023-01-04T21:21:13.692Z,13.20
2023-01-04T21:23:58.924Z,13.10
2023-01-04T21:26:44.445Z,13.00
2023-01-04T21:29:30.804Z,13.00
2023-01-04T21:32:18.332Z,12.90
2023-01-04T21:35:04.200Z,12.90
2023-01-04T21:37:49.726Z,12.80
2023-01-04T21:40:37.968Z,12.80
2023-01-04T21:43:23.327Z,12.80
2023-01-04T21:46:15.288Z,12.70
2023-01-04T21:49:01.927Z,12.70
2023-01-04T21:51:47.455Z,12.70
2023-01-04T21:54:33.096Z,12.60
2023-01-04T21:57:18.652Z,12.60
2023-01-04T22:00:24.683Z,12.60
2023-01-04T22:03:12.335Z,12.70
2023-01-04T22:06:02.400Z,12.70
2023-01-04T22:08:48.304Z,12.70
2023-01-04T22:11:33.806Z,12.60
2023-01-04T22:14:19.636Z,12.60
2023-01-04T22:17:07.171Z,12.50
2023-01-04T22:19:53.093Z,12.50
2023-01-04T22:22:41.845Z,12.50
2023-01-04T22:25:27.846Z,12.60
2023-01-04T22:28:18.586Z,12.60
2023-01-04T22:31:12.868Z,12.60
2023-01-04T22:33:58.377Z,12.70
2023-01-04T22:36:44.185Z,12.60
2023-01-04T22:39:29.803Z,12.60
2023-01-04T22:42:15.273Z,12.70
2023-01-04T22:45:00.886Z,12.70
2023-01-04T22:47:46.521Z,12.70
2023-01-04T22:50:32.381Z,12.70
2023-01-04T22:53:17.967Z,12.70
2023-01-04T22:56:22.019Z,12.70
2023-01-04T22:59:09.731Z,12.70
2023-01-04T23:01:56.284Z,12.70
2023-01-04T23:04:44.531Z,12.60
2023-01-04T23:07:30.137Z,12.60
2023-01-04T23:10:15.673Z,12.60
2023-01-04T23:13:01.280Z,12.60
2023-01-04T23:15:46.577Z,12.60
2023-01-04T23:18:37.936Z,12.50
2023-01-04T23:21:23.506Z,12.50
2023-01-04T23:24:16.830Z,12.50
2023-01-04T23:27:02.195Z,12.50
2023-01-04T23:29:47.698Z,12.40
2023-01-04T23:32:35.593Z,12.40
2023-01-04T23:35:21.232Z,12.40
2023-01-04T23:38:09.816Z,12.30
2023-01-04T23:40:55.275Z,12.30
2023-01-04T23:43:40.862Z,12.30
2023-01-04T23:46:30.601Z,12.20
2023-01-04T23:49:16.058Z,12.20
2023-01-04T23:52:03.092Z,12.20
2023-01-04T23:54:49.196Z,12.10
2023-01-04T23:57:37.901Z,12.10
